createdAt,value
2022-12-27T00:00:30.657Z,36.4
2022-12-27T00:08:02.955Z,36.4
2022-12-27T00:15:35.281Z,36.3
2022-12-27T00:23:07.566Z,36.5
2022-12-27T00:30:39.883Z,36.6
2022-12-27T00:38:12.192Z,36.8
2022-12-27T00:45:44.529Z,36.8
2022-12-27T00:53:16.855Z,36.9
2022-12-27T01:00:49.163Z,36.7
2022-12-27T01:08:21.496Z,36.4
2022-12-27T01:15:53.769Z,36.4
2022-12-27T01:23:26.065Z,36.2
2022-12-27T01:30:58.364Z,36.1
2022-12-27T01:38:30.645Z,36.1
2022-12-27T01:46:02.927Z,36.0
2022-12-27T01:53:35.295Z,35.9
2022-12-27T02:01:07.627Z,35.9
2022-12-27T02:08:39.973Z,35.8
2022-12-27T02:16:12.312Z,35.8
2022-12-27T02:23:44.597Z,35.9
2022-12-27T02:31:16.950Z,36.0
2022-12-27T02:38:49.299Z,35.9
2022-12-27T02:46:22.001Z,35.8
2022-12-27T02:53:54.562Z,35.9
2022-12-27T03:01:26.957Z,36.1
2022-12-27T03:08:59.292Z,36.2
2022-12-27T03:16:31.606Z,36.3
2022-12-27T03:24:03.927Z,36.2
2022-12-27T03:31:36.250Z,36.1
2022-12-27T03:39:08.537Z,35.9
2022-12-27T03:46:40.881Z,35.8
2022-12-27T03:54:13.230Z,35.8
2022-12-27T04:01:45.609Z,35.7
2022-12-27T04:09:18.032Z,35.6
2022-12-27T04:16:50.318Z,35.5
2022-12-27T04:24:22.650Z,35.6
2022-12-27T04:31:54.963Z,35.5
2022-12-27T04:39:27.261Z,35.5
2022-12-27T04:46:59.579Z,35.5
2022-12-27T04:54:31.900Z,35.6
2022-12-27T05:02:04.376Z,35.7
2022-12-27T05:09:36.837Z,35.6
2022-12-27T05:17:09.127Z,35.6
2022-12-27T05:24:41.466Z,35.5
2022-12-27T05:32:14.080Z,35.5
2022-12-27T05:39:46.440Z,35.4
2022-12-27T05:47:18.732Z,35.3
2022-12-27T05:54:51.499Z,35.5
2022-12-27T05:57:13.749Z,35.7
2022-12-27T05:58:01.053Z,36.3
2022-12-27T05:58:48.324Z,35.8
2022-12-27T05:59:35.645Z,35.8
2022-12-27T06:00:22.964Z,35.8
2022-12-27T06:01:10.288Z,35.8
2022-12-27T06:01:57.811Z,35.8
2022-12-27T06:02:45.381Z,35.8
2022-12-27T06:03:32.895Z,35.8
2022-12-27T06:04:20.624Z,35.7
2022-12-27T06:05:07.926Z,35.8
2022-12-27T06:05:55.209Z,35.9
2022-12-27T06:06:42.521Z,35.9
2022-12-27T06:07:29.802Z,35.9
2022-12-27T06:08:17.113Z,36.0
2022-12-27T06:09:04.390Z,36.0
2022-12-27T06:09:51.709Z,36.1
2022-12-27T06:10:39.211Z,36.1
2022-12-27T06:11:26.542Z,36.9
2022-12-27T06:12:13.923Z,36.2
2022-12-27T06:13:01.231Z,36.1
2022-12-27T06:13:48.505Z,35.9
2022-12-27T06:14:35.943Z,35.9
2022-12-27T06:15:23.264Z,35.9
2022-12-27T06:16:10.625Z,35.7
2022-12-27T06:16:57.954Z,35.6
2022-12-27T06:17:45.318Z,35.6
2022-12-27T06:18:32.663Z,35.6
2022-12-27T06:19:20.014Z,35.5
2022-12-27T06:20:07.343Z,35.5
2022-12-27T06:20:54.653Z,35.5
2022-12-27T06:21:41.994Z,35.5
2022-12-27T06:22:29.288Z,35.5
2022-12-27T06:23:16.601Z,35.5
2022-12-27T06:24:03.981Z,35.4
2022-12-27T06:24:51.290Z,35.3
2022-12-27T06:25:38.637Z,35.4
2022-12-27T06:26:26.003Z,35.3
2022-12-27T06:27:13.303Z,35.3
2022-12-27T06:28:00.602Z,35.2
2022-12-27T06:28:47.988Z,35.1
2022-12-27T06:29:35.270Z,35.1
2022-12-27T06:30:22.596Z,35.1
2022-12-27T06:31:09.915Z,35.0
2022-12-27T06:31:57.290Z,35.0
2022-12-27T06:32:44.631Z,35.1
2022-12-27T06:33:31.937Z,35.1
2022-12-27T06:34:19.253Z,35.1
2022-12-27T06:35:07.079Z,35.1
2022-12-27T06:35:54.399Z,35.1
2022-12-27T06:36:41.962Z,35.1
2022-12-27T06:37:29.280Z,35.0
2022-12-27T06:38:16.612Z,35.0
2022-12-27T06:39:03.911Z,34.9
2022-12-27T06:39:51.201Z,34.9
2022-12-27T06:40:38.528Z,34.9
2022-12-27T06:41:25.887Z,34.8
2022-12-27T06:42:13.200Z,33.3
2022-12-27T06:43:00.522Z,33.4
2022-12-27T06:43:47.882Z,33.7
2022-12-27T06:44:35.217Z,34.0
2022-12-27T06:45:22.529Z,34.2
2022-12-27T06:46:15.201Z,34.3
2022-12-27T06:47:04.576Z,34.4
2022-12-27T06:47:51.948Z,34.5
2022-12-27T06:48:39.285Z,34.5
2022-12-27T06:49:26.619Z,34.6
2022-12-27T06:50:13.959Z,34.7
2022-12-27T06:51:01.265Z,34.8
2022-12-27T06:51:52.611Z,34.8
2022-12-27T06:52:43.091Z,34.8
2022-12-27T06:53:30.489Z,34.9
2022-12-27T06:54:17.817Z,35.0
2022-12-27T06:55:05.169Z,35.0
2022-12-27T06:55:52.549Z,35.1
2022-12-27T06:56:39.847Z,35.0
2022-12-27T06:57:27.142Z,34.9
2022-12-27T06:58:14.546Z,34.9
2022-12-27T06:59:01.931Z,34.9
2022-12-27T06:59:53.818Z,34.9
2022-12-27T07:00:41.500Z,34.8
2022-12-27T07:01:29.066Z,33.0
2022-12-27T07:02:16.592Z,32.0
2022-12-27T07:03:04.077Z,31.6
2022-12-27T07:03:51.450Z,31.5
2022-12-27T07:04:38.881Z,31.6
2022-12-27T07:05:26.191Z,31.6
2022-12-27T07:06:13.660Z,31.5
2022-12-27T07:07:01.007Z,31.6
2022-12-27T07:07:48.300Z,31.8
2022-12-27T07:08:35.767Z,31.7
2022-12-27T07:09:23.053Z,32.0
2022-12-27T07:10:10.338Z,32.0
2022-12-27T07:10:57.779Z,32.3
2022-12-27T07:11:45.093Z,32.6
2022-12-27T07:12:36.681Z,32.9
2022-12-27T07:13:24.337Z,33.3
2022-12-27T07:14:11.701Z,33.9
2022-12-27T07:14:59.012Z,34.2
2022-12-27T07:15:46.338Z,34.4
2022-12-27T07:16:33.782Z,34.5
2022-12-27T07:17:21.094Z,35.3
2022-12-27T07:18:08.397Z,34.9
2022-12-27T07:18:55.829Z,34.9
2022-12-27T07:19:43.186Z,35.0
2022-12-27T07:20:30.527Z,35.0
2022-12-27T07:21:17.957Z,35.0
2022-12-27T07:22:05.560Z,35.0
2022-12-27T07:22:52.921Z,35.0
2022-12-27T07:23:40.347Z,35.0
2022-12-27T07:24:27.696Z,35.0
2022-12-27T07:25:15.004Z,35.0
2022-12-27T07:26:02.466Z,34.9
2022-12-27T07:26:49.777Z,34.9
2022-12-27T07:27:37.094Z,34.9
2022-12-27T07:28:24.520Z,34.8
2022-12-27T07:29:11.809Z,34.8
2022-12-27T07:29:59.136Z,34.8
2022-12-27T07:30:46.566Z,34.8
2022-12-27T07:31:33.925Z,34.8
2022-12-27T07:32:21.328Z,34.8
2022-12-27T07:33:08.765Z,34.8
2022-12-27T07:33:56.072Z,34.8
2022-12-27T07:34:43.357Z,34.8
2022-12-27T07:35:30.786Z,34.7
2022-12-27T07:36:18.121Z,34.8
2022-12-27T07:37:05.418Z,34.8
2022-12-27T07:37:52.829Z,34.7
2022-12-27T07:38:40.142Z,34.7
2022-12-27T07:39:27.479Z,34.7
2022-12-27T07:40:14.894Z,34.7
2022-12-27T07:41:02.229Z,34.7
2022-12-27T07:41:49.557Z,34.7
2022-12-27T07:42:36.951Z,34.7
2022-12-27T07:43:24.229Z,34.6
2022-12-27T07:44:11.524Z,34.6
2022-12-27T07:44:58.938Z,34.7
2022-12-27T07:45:46.260Z,34.7
2022-12-27T07:46:33.633Z,34.8
2022-12-27T07:47:21.039Z,34.8
2022-12-27T07:48:08.326Z,34.9
2022-12-27T07:48:55.623Z,35.0
2022-12-27T07:49:43.074Z,35.0
2022-12-27T07:50:30.433Z,35.1
2022-12-27T07:51:17.774Z,35.1
2022-12-27T07:52:05.188Z,35.1
2022-12-27T07:52:52.551Z,35.1
2022-12-27T07:53:39.880Z,35.0
2022-12-27T07:54:27.308Z,35.0
2022-12-27T07:55:14.642Z,35.0
2022-12-27T07:56:01.938Z,35.0
2022-12-27T07:56:49.411Z,34.9
2022-12-27T07:57:36.729Z,34.9
2022-12-27T07:58:24.061Z,34.9
2022-12-27T07:59:11.490Z,34.8
2022-12-27T07:59:58.795Z,34.9
2022-12-27T08:00:46.132Z,34.8
2022-12-27T08:01:33.591Z,34.8
2022-12-27T08:02:20.998Z,34.9
2022-12-27T08:03:08.376Z,35.0
2022-12-27T08:03:56.006Z,35.1
2022-12-27T08:04:43.303Z,35.2
2022-12-27T08:05:30.609Z,35.3
2022-12-27T08:06:18.016Z,35.2
2022-12-27T08:07:05.371Z,35.2
2022-12-27T08:07:52.709Z,35.2
2022-12-27T08:08:40.052Z,35.1
2022-12-27T08:09:27.384Z,35.1
2022-12-27T08:10:14.738Z,35.2
2022-12-27T08:11:05.543Z,35.2
2022-12-27T08:11:53.303Z,35.2
2022-12-27T08:12:40.587Z,35.2
2022-12-27T08:13:27.916Z,35.2
2022-12-27T08:14:15.214Z,35.2
2022-12-27T08:15:02.608Z,35.2
2022-12-27T08:15:49.911Z,35.1
2022-12-27T08:16:37.221Z,35.2
2022-12-27T08:17:24.608Z,35.2
2022-12-27T08:18:11.900Z,35.2
2022-12-27T08:19:03.353Z,35.2
2022-12-27T08:19:55.408Z,35.2
2022-12-27T08:20:42.785Z,35.1
2022-12-27T08:21:30.074Z,35.2
2022-12-27T08:22:17.369Z,35.1
2022-12-27T08:23:04.795Z,35.1
2022-12-27T08:23:52.093Z,35.0
2022-12-27T08:24:39.386Z,35.0
2022-12-27T08:25:26.776Z,35.1
2022-12-27T08:26:14.082Z,35.1
2022-12-27T08:27:01.409Z,35.1
2022-12-27T08:27:48.791Z,35.1
2022-12-27T08:28:36.121Z,35.1
2022-12-27T08:29:23.462Z,35.1
2022-12-27T08:30:10.875Z,35.1
2022-12-27T08:30:58.279Z,35.1
2022-12-27T08:31:45.667Z,35.1
2022-12-27T08:32:32.999Z,35.1
2022-12-27T08:33:20.285Z,35.1
2022-12-27T08:34:07.591Z,35.2
2022-12-27T08:34:55.033Z,35.2
2022-12-27T08:35:52.854Z,35.2
2022-12-27T08:36:56.234Z,35.2
2022-12-27T08:37:37.059Z,35.1
2022-12-27T08:38:24.413Z,35.2
2022-12-27T08:39:11.703Z,35.2
2022-12-27T08:40:02.652Z,35.2
2022-12-27T08:40:50.526Z,35.1
2022-12-27T08:41:37.910Z,35.1
2022-12-27T08:42:25.184Z,35.1
2022-12-27T08:43:12.477Z,35.1
2022-12-27T08:43:59.867Z,35.1
2022-12-27T08:44:47.188Z,35.1
2022-12-27T08:45:34.557Z,35.1
2022-12-27T08:46:22.035Z,35.1
2022-12-27T08:47:09.404Z,35.1
2022-12-27T08:47:56.754Z,35.1
2022-12-27T08:48:44.107Z,35.1
2022-12-27T08:49:31.389Z,35.1
2022-12-27T08:50:18.698Z,35.1
2022-12-27T08:51:12.132Z,35.1
2022-12-27T08:52:01.057Z,35.1
2022-12-27T08:52:48.496Z,35.1
2022-12-27T08:53:35.781Z,35.1
2022-12-27T08:54:23.069Z,35.2
2022-12-27T08:55:10.482Z,35.2
2022-12-27T08:55:57.769Z,35.2
2022-12-27T08:56:45.096Z,35.2
2022-12-27T08:57:32.516Z,35.2
2022-12-27T08:58:19.831Z,35.2
2022-12-27T08:59:07.210Z,35.2
2022-12-27T08:59:54.562Z,35.3
2022-12-27T09:00:41.883Z,35.2
2022-12-27T09:01:29.331Z,35.3
2022-12-27T09:02:16.848Z,35.4
2022-12-27T09:03:04.359Z,35.4
2022-12-27T09:03:51.687Z,35.4
2022-12-27T09:04:39.011Z,35.4
2022-12-27T09:05:26.303Z,35.4
2022-12-27T09:06:13.614Z,35.5
2022-12-27T09:07:01.158Z,35.5
2022-12-27T09:07:48.490Z,35.6
2022-12-27T09:08:35.826Z,35.7
2022-12-27T09:09:23.157Z,35.6
2022-12-27T09:10:10.467Z,35.5
2022-12-27T09:10:57.757Z,35.5
2022-12-27T09:11:45.050Z,35.5
2022-12-27T09:12:32.415Z,35.5
2022-12-27T09:13:19.718Z,35.5
2022-12-27T09:14:07.022Z,35.5
2022-12-27T09:14:54.359Z,35.6
2022-12-27T09:15:41.726Z,35.6
2022-12-27T09:16:29.034Z,35.6
2022-12-27T09:17:16.377Z,35.6
2022-12-27T09:18:03.678Z,35.6
2022-12-27T09:18:51.007Z,35.6
2022-12-27T09:19:38.447Z,35.6
2022-12-27T09:20:25.749Z,35.7
2022-12-27T09:21:13.102Z,35.6
2022-12-27T09:22:00.403Z,35.6
2022-12-27T09:22:47.736Z,35.7
2022-12-27T09:23:35.026Z,35.8
2022-12-27T09:24:22.358Z,35.7
2022-12-27T09:25:09.727Z,35.7
2022-12-27T09:25:57.029Z,35.7
2022-12-27T09:26:44.328Z,35.8
2022-12-27T09:27:31.643Z,35.8
2022-12-27T09:28:18.930Z,35.7
2022-12-27T09:29:06.245Z,35.8
2022-12-27T09:29:53.618Z,35.8
2022-12-27T09:30:40.978Z,35.9
2022-12-27T09:31:28.376Z,35.9
2022-12-27T09:32:15.708Z,35.9
2022-12-27T09:33:02.985Z,35.9
2022-12-27T09:33:50.269Z,35.9
2022-12-27T09:34:37.537Z,35.9
2022-12-27T09:35:24.820Z,35.9
2022-12-27T09:36:12.102Z,35.9
2022-12-27T09:36:59.428Z,35.9
2022-12-27T09:37:46.728Z,35.9
2022-12-27T09:38:34.002Z,35.8
2022-12-27T09:39:21.290Z,35.8
2022-12-27T09:40:08.685Z,35.8
2022-12-27T09:40:56.001Z,35.8
2022-12-27T09:42:56.912Z,35.8
2022-12-27T09:43:37.798Z,35.7
2022-12-27T09:44:25.191Z,35.7
2022-12-27T09:45:13.028Z,35.7
2022-12-27T09:46:00.379Z,35.7
2022-12-27T09:46:47.752Z,35.7
2022-12-27T09:47:35.063Z,35.7
2022-12-27T09:48:26.184Z,35.7
2022-12-27T09:49:16.620Z,35.7
2022-12-27T09:50:04.041Z,35.7
2022-12-27T09:50:51.335Z,35.6
2022-12-27T09:51:38.664Z,35.4
2022-12-27T09:52:25.993Z,35.4
2022-12-27T09:53:13.318Z,35.4
2022-12-27T09:54:00.635Z,35.5
2022-12-27T09:54:47.986Z,35.5
2022-12-27T09:55:35.320Z,35.5
2022-12-27T09:56:22.642Z,35.6
2022-12-27T09:57:19.858Z,35.7
2022-12-27T09:58:07.248Z,35.8
2022-12-27T09:58:54.668Z,35.8
2022-12-27T09:59:41.946Z,36.4
2022-12-27T10:00:35.195Z,36.0
2022-12-27T10:01:23.966Z,36.1
2022-12-27T10:02:11.493Z,36.7
2022-12-27T10:02:58.946Z,36.3
2022-12-27T10:03:46.251Z,36.5
2022-12-27T10:05:00.864Z,36.5
2022-12-27T10:05:30.877Z,36.6
2022-12-27T10:06:18.210Z,36.7
2022-12-27T10:07:05.571Z,36.7
2022-12-27T10:07:52.873Z,36.8
2022-12-27T10:08:40.310Z,36.8
2022-12-27T10:09:27.648Z,36.8
2022-12-27T10:10:14.974Z,36.8
2022-12-27T10:11:02.341Z,36.9
2022-12-27T10:11:49.648Z,36.8
2022-12-27T10:12:37.162Z,36.9
2022-12-27T10:13:24.575Z,36.9
2022-12-27T10:14:11.879Z,36.9
2022-12-27T10:14:59.209Z,36.8
2022-12-27T10:15:47.026Z,36.8
2022-12-27T10:16:34.577Z,37.0
2022-12-27T10:17:22.012Z,36.9
2022-12-27T10:18:09.333Z,37.0
2022-12-27T10:18:56.682Z,37.0
2022-12-27T10:19:43.999Z,37.5
2022-12-27T10:20:31.302Z,37.0
2022-12-27T10:21:19.175Z,36.9
2022-12-27T10:22:06.796Z,36.9
2022-12-27T10:22:54.081Z,36.9
2022-12-27T10:23:41.412Z,36.9
2022-12-27T10:24:28.781Z,36.9
2022-12-27T10:25:16.091Z,36.9
2022-12-27T10:26:03.463Z,36.9
2022-12-27T10:26:50.813Z,36.9
2022-12-27T10:27:38.141Z,36.9
2022-12-27T10:28:25.425Z,36.9
2022-12-27T10:29:12.839Z,36.9
2022-12-27T10:30:00.361Z,36.9
2022-12-27T10:30:47.688Z,36.9
2022-12-27T10:31:35.140Z,37.0
2022-12-27T10:32:22.561Z,37.1
2022-12-27T10:33:09.875Z,37.1
2022-12-27T10:33:57.280Z,37.0
2022-12-27T10:34:44.592Z,37.0
2022-12-27T10:35:31.902Z,37.0
2022-12-27T10:36:19.317Z,37.0
2022-12-27T10:37:06.619Z,37.5
2022-12-27T10:37:53.990Z,37.0
2022-12-27T10:38:41.334Z,37.0
2022-12-27T10:39:28.696Z,36.9
2022-12-27T10:40:16.002Z,37.0
2022-12-27T10:41:03.417Z,36.9
2022-12-27T10:41:50.958Z,37.0
2022-12-27T10:42:38.237Z,36.9
2022-12-27T10:43:25.625Z,37.0
2022-12-27T10:44:12.975Z,37.0
2022-12-27T10:45:00.287Z,37.0
2022-12-27T10:45:47.654Z,37.0
2022-12-27T10:46:35.012Z,37.0
2022-12-27T10:47:22.334Z,37.0
2022-12-27T10:48:09.710Z,37.0
2022-12-27T10:49:22.269Z,37.0
2022-12-27T10:49:54.234Z,36.9
2022-12-27T10:50:41.635Z,37.0
2022-12-27T10:51:28.973Z,37.0
2022-12-27T10:52:16.266Z,37.0
2022-12-27T10:53:03.703Z,37.0
2022-12-27T10:53:51.035Z,37.1
2022-12-27T10:54:38.325Z,37.1
2022-12-27T10:55:25.780Z,37.1
2022-12-27T10:56:13.263Z,37.3
2022-12-27T10:57:00.591Z,37.3
2022-12-27T10:57:47.959Z,37.4
2022-12-27T10:58:35.251Z,37.5
2022-12-27T10:59:22.551Z,37.7
2022-12-27T11:06:54.901Z,37.7
2022-12-27T11:14:27.237Z,37.9
2022-12-27T11:21:59.546Z,38.2
2022-12-27T11:29:31.901Z,38.8
2022-12-27T11:37:04.216Z,38.7
2022-12-27T11:44:36.518Z,39.0
2022-12-27T11:48:08.796Z,39.2
2022-12-27T11:48:56.146Z,39.3
2022-12-27T11:49:43.478Z,39.3
2022-12-27T11:50:30.765Z,39.6
2022-12-27T11:51:18.096Z,39.7
2022-12-27T11:52:05.412Z,40.2
2022-12-27T11:52:52.743Z,39.7
2022-12-27T11:53:40.034Z,39.8
2022-12-27T11:54:27.364Z,39.8
2022-12-27T11:55:14.642Z,40.0
2022-12-27T11:56:01.957Z,40.0
2022-12-27T11:56:49.252Z,39.9
2022-12-27T11:57:36.567Z,39.9
2022-12-27T11:58:23.885Z,39.9
2022-12-27T11:59:11.204Z,40.0
2022-12-27T11:59:58.565Z,39.9
2022-12-27T12:00:45.897Z,39.9
2022-12-27T12:01:33.298Z,39.8
2022-12-27T12:02:20.655Z,39.8
2022-12-27T12:03:08.018Z,39.7
2022-12-27T12:03:55.323Z,39.7
2022-12-27T12:04:42.597Z,39.8
2022-12-27T12:05:30.027Z,39.7
2022-12-27T12:06:17.321Z,39.8
2022-12-27T12:07:04.624Z,39.7
2022-12-27T12:07:51.948Z,39.7
2022-12-27T12:08:39.238Z,39.7
2022-12-27T12:09:26.528Z,39.6
2022-12-27T12:10:13.919Z,39.7
2022-12-27T12:11:01.294Z,39.7
2022-12-27T12:11:54.503Z,39.6
2022-12-27T12:12:42.357Z,39.6
2022-12-27T12:13:29.756Z,39.5
2022-12-27T12:14:17.099Z,39.5
2022-12-27T12:15:04.386Z,39.5
2022-12-27T12:15:51.822Z,39.4
2022-12-27T12:16:39.173Z,39.5
2022-12-27T12:17:31.083Z,39.4
2022-12-27T12:18:21.383Z,39.4
2022-12-27T12:19:08.738Z,39.4
2022-12-27T12:19:56.029Z,39.5
2022-12-27T12:20:48.778Z,39.4
2022-12-27T12:21:37.978Z,39.5
2022-12-27T12:22:25.415Z,39.5
2022-12-27T12:23:12.709Z,39.5
2022-12-27T12:24:00.049Z,39.6
2022-12-27T12:24:47.493Z,39.5
2022-12-27T12:25:34.792Z,39.5
2022-12-27T12:26:22.116Z,39.5
2022-12-27T12:27:09.506Z,39.6
2022-12-27T12:27:56.795Z,39.5
2022-12-27T12:29:00.522Z,39.6
2022-12-27T12:29:41.401Z,39.5
2022-12-27T12:30:28.809Z,39.6
2022-12-27T12:31:16.168Z,39.6
2022-12-27T12:32:03.551Z,39.6
2022-12-27T12:32:50.931Z,39.6
2022-12-27T12:33:38.215Z,39.6
2022-12-27T12:34:25.491Z,39.6
2022-12-27T12:35:12.935Z,39.6
2022-12-27T12:36:00.260Z,39.6
2022-12-27T12:36:52.298Z,39.6
2022-12-27T12:37:40.070Z,39.5
2022-12-27T12:38:27.459Z,39.6
2022-12-27T12:39:14.733Z,39.6
2022-12-27T12:40:02.072Z,39.6
2022-12-27T12:40:49.472Z,39.6
2022-12-27T12:41:36.763Z,39.7
2022-12-27T12:42:24.039Z,39.7
2022-12-27T12:43:11.417Z,39.6
2022-12-27T12:43:58.699Z,39.6
2022-12-27T12:44:45.980Z,39.6
2022-12-27T12:45:33.435Z,39.6
2022-12-27T12:46:20.860Z,39.7
2022-12-27T12:47:08.159Z,39.6
2022-12-27T12:47:55.515Z,39.7
2022-12-27T12:48:42.859Z,39.7
2022-12-27T12:49:30.193Z,39.7
2022-12-27T12:50:17.562Z,39.7
2022-12-27T12:51:04.891Z,39.7
2022-12-27T12:51:52.222Z,39.7
2022-12-27T12:52:39.587Z,39.7
2022-12-27T12:53:26.879Z,39.7
2022-12-27T12:54:14.204Z,39.7
2022-12-27T12:55:01.569Z,39.7
2022-12-27T12:55:48.845Z,39.8
2022-12-27T12:56:36.122Z,39.7
2022-12-27T12:57:23.563Z,39.8
2022-12-27T12:58:10.854Z,39.8
2022-12-27T12:58:58.164Z,39.9
2022-12-27T12:59:45.578Z,39.9
2022-12-27T13:00:32.903Z,39.9
2022-12-27T13:01:20.313Z,39.9
2022-12-27T13:02:07.810Z,40.0
2022-12-27T13:02:55.378Z,40.0
2022-12-27T13:03:42.734Z,40.0
2022-12-27T13:04:30.049Z,40.0
2022-12-27T13:05:17.338Z,40.0
2022-12-27T13:06:04.796Z,40.2
2022-12-27T13:13:37.091Z,40.1
2022-12-27T13:21:09.373Z,40.1
2022-12-27T13:28:41.690Z,40.1
2022-12-27T13:36:14.004Z,40.1
2022-12-27T13:43:46.297Z,40.2
2022-12-27T13:51:18.618Z,40.3
2022-12-27T13:58:56.226Z,40.4
2022-12-27T14:06:31.683Z,40.4
2022-12-27T14:14:04.030Z,40.5
2022-12-27T14:21:36.359Z,40.6
2022-12-27T14:29:08.681Z,40.6
2022-12-27T14:36:40.973Z,40.6
2022-12-27T14:44:13.262Z,40.6
2022-12-27T14:52:03.643Z,40.6
2022-12-27T14:59:27.999Z,40.7
2022-12-27T15:07:00.325Z,40.8
2022-12-27T15:14:32.638Z,40.9
2022-12-27T15:22:04.983Z,40.8
2022-12-27T15:29:37.279Z,40.9
2022-12-27T15:37:09.595Z,41.0
2022-12-27T15:44:41.931Z,40.9
2022-12-27T15:52:14.320Z,40.9
2022-12-27T15:59:46.676Z,40.8
2022-12-27T16:07:19.040Z,40.8
2022-12-27T16:14:51.339Z,40.7
2022-12-27T16:22:23.635Z,40.8
2022-12-27T16:29:55.917Z,40.7
2022-12-27T16:37:28.202Z,40.8
2022-12-27T16:45:00.481Z,40.8
2022-12-27T16:52:32.746Z,40.8
2022-12-27T17:00:05.062Z,40.8
2022-12-27T17:07:37.360Z,40.7
2022-12-27T17:15:09.681Z,40.7
2022-12-27T17:22:41.970Z,40.7
2022-12-27T17:30:14.535Z,40.7
2022-12-27T17:37:47.159Z,40.7
2022-12-27T17:45:19.489Z,40.7
2022-12-27T17:52:51.826Z,40.7
2022-12-27T18:00:24.139Z,40.7
2022-12-27T18:07:56.472Z,40.7
2022-12-27T18:15:28.835Z,40.7
2022-12-27T18:23:01.229Z,40.7
2022-12-27T18:30:33.662Z,40.7
2022-12-27T18:38:05.972Z,40.7
2022-12-27T18:45:38.333Z,40.6
2022-12-27T18:53:10.727Z,40.7
2022-12-27T19:00:43.036Z,40.6
2022-12-27T19:08:15.372Z,40.6
2022-12-27T19:15:47.718Z,40.7
2022-12-27T19:23:20.025Z,40.7
2022-12-27T19:30:52.353Z,40.6
2022-12-27T19:38:24.682Z,40.6
2022-12-27T19:45:57.030Z,40.6
2022-12-27T19:53:29.369Z,40.6
2022-12-27T20:01:01.749Z,40.6
2022-12-27T20:08:34.048Z,40.7
2022-12-27T20:16:06.420Z,40.7
2022-12-27T20:23:38.769Z,40.8
2022-12-27T20:31:11.089Z,40.8
2022-12-27T20:38:43.395Z,40.8
2022-12-27T20:46:15.705Z,40.8
2022-12-27T20:53:48.022Z,40.8
2022-12-27T21:01:20.470Z,40.8
2022-12-27T21:08:57.154Z,40.9
2022-12-27T21:16:30.150Z,40.9
2022-12-27T21:24:02.436Z,40.8
2022-12-27T21:31:34.724Z,40.8
2022-12-27T21:39:07.025Z,40.8
2022-12-27T21:46:39.370Z,40.8
2022-12-27T21:54:11.734Z,40.9
2022-12-27T22:01:49.714Z,40.8
2022-12-27T22:09:23.392Z,40.9
2022-12-27T22:16:55.725Z,40.9
2022-12-27T22:24:28.080Z,40.9
2022-12-27T22:32:00.394Z,40.9
2022-12-27T22:39:32.723Z,40.8
2022-12-27T22:55:05.843Z,40.8
2022-12-27T23:02:29.618Z,40.8
2022-12-27T23:10:01.984Z,40.8
2022-12-27T23:17:34.292Z,40.8
2022-12-27T23:25:06.580Z,40.8
2022-12-27T23:32:38.887Z,40.9
2022-12-27T23:40:11.172Z,40.9
2022-12-27T23:47:43.485Z,40.8
2022-12-27T23:55:15.812Z,40.8
